sensor_id;sensor_type;location;lat;lon;timestamp;P1;durP1;ratioP1;P2;durP2;ratioP2
29246;SDS011;16272;48.188;9.964;2022-11-25T00:00:06;7.53;;;2.27;;
29246;SDS011;16272;48.188;9.964;2022-11-25T00:02:32;7.80;;;2.40;;
29246;SDS011;16272;48.188;9.964;2022-11-25T00:04:57;6.93;;;2.07;;
29246;SDS011;16272;48.188;9.964;2022-11-25T00:07:22;7.57;;;2.27;;
29246;SDS011;16272;48.188;9.964;2022-11-25T00:09:48;7.03;;;2.13;;
29246;SDS011;16272;48.188;9.964;2022-11-25T00:12:13;9.20;;;2.20;;
29246;SDS011;16272;48.188;9.964;2022-11-25T00:14:38;7.40;;;2.00;;
29246;SDS011;16272;48.188;9.964;2022-11-25T00:17:04;8.37;;;2.00;;
29246;SDS011;16272;48.188;9.964;2022-11-25T00:19:29;7.63;;;2.03;;
29246;SDS011;16272;48.188;9.964;2022-11-25T00:21:54;7.40;;;2.00;;
29246;SDS011;16272;48.188;9.964;2022-11-25T00:24:20;6.90;;;1.80;;
29246;SDS011;16272;48.188;9.964;2022-11-25T00:26:46;7.57;;;2.03;;
29246;SDS011;16272;48.188;9.964;2022-11-25T00:29:11;7.38;;;2.10;;
29246;SDS011;16272;48.188;9.964;2022-11-25T00:31:38;6.10;;;1.60;;
29246;SDS011;16272;48.188;9.964;2022-11-25T00:34:05;7.72;;;2.30;;
29246;SDS011;16272;48.188;9.964;2022-11-25T00:36:32;6.57;;;1.80;;
29246;SDS011;16272;48.188;9.964;2022-11-25T00:39:03;7.47;;;2.00;;
29246;SDS011;16272;48.188;9.964;2022-11-25T00:41:34;10.52;;;2.50;;
29246;SDS011;16272;48.188;9.964;2022-11-25T00:44:18;6.57;;;1.88;;
29246;SDS011;16272;48.188;9.964;2022-11-25T00:46:59;7.72;;;2.15;;
29246;SDS011;16272;48.188;9.964;2022-11-25T00:49:26;7.33;;;2.03;;
29246;SDS011;16272;48.188;9.964;2022-11-25T00:51:51;7.93;;;2.22;;
29246;SDS011;16272;48.188;9.964;2022-11-25T00:54:16;7.10;;;2.30;;
29246;SDS011;16272;48.188;9.964;2022-11-25T00:56:42;8.50;;;2.20;;
29246;SDS011;16272;48.188;9.964;2022-11-25T00:59:07;6.68;;;2.10;;
29246;SDS011;16272;48.188;9.964;2022-11-25T01:01:33;6.87;;;2.30;;
29246;SDS011;16272;48.188;9.964;2022-11-25T01:03:59;7.55;;;2.03;;
29246;SDS011;16272;48.188;9.964;2022-11-25T01:06:24;9.60;;;2.43;;
29246;SDS011;16272;48.188;9.964;2022-11-25T01:08:49;7.83;;;2.50;;
29246;SDS011;16272;48.188;9.964;2022-11-25T01:11:17;9.10;;;2.40;;
29246;SDS011;16272;48.188;9.964;2022-11-25T01:13:43;9.07;;;2.50;;
29246;SDS011;16272;48.188;9.964;2022-11-25T01:16:11;7.72;;;2.40;;
29246;SDS011;16272;48.188;9.964;2022-11-25T01:18:38;8.27;;;2.40;;
29246;SDS011;16272;48.188;9.964;2022-11-25T01:21:07;8.10;;;2.53;;
29246;SDS011;16272;48.188;9.964;2022-11-25T01:23:33;8.35;;;2.40;;
29246;SDS011;16272;48.188;9.964;2022-11-25T01:26:00;8.93;;;2.50;;
29246;SDS011;16272;48.188;9.964;2022-11-25T01:28:27;7.80;;;2.10;;
29246;SDS011;16272;48.188;9.964;2022-11-25T01:30:59;7.37;;;2.33;;
29246;SDS011;16272;48.188;9.964;2022-11-25T01:33:32;6.80;;;2.20;;
29246;SDS011;16272;48.188;9.964;2022-11-25T01:36:02;7.15;;;2.42;;
29246;SDS011;16272;48.188;9.964;2022-11-25T01:38:29;7.77;;;2.20;;
29246;SDS011;16272;48.188;9.964;2022-11-25T01:40:54;8.65;;;2.53;;
29246;SDS011;16272;48.188;9.964;2022-11-25T01:43:20;7.00;;;2.20;;
29246;SDS011;16272;48.188;9.964;2022-11-25T01:45:45;7.40;;;2.13;;
29246;SDS011;16272;48.188;9.964;2022-11-25T01:48:15;7.27;;;2.33;;
29246;SDS011;16272;48.188;9.964;2022-11-25T01:50:46;8.37;;;2.70;;
29246;SDS011;16272;48.188;9.964;2022-11-25T01:53:13;7.15;;;2.42;;
29246;SDS011;16272;48.188;9.964;2022-11-25T01:55:43;7.97;;;2.85;;
29246;SDS011;16272;48.188;9.964;2022-11-25T01:58:46;8.13;;;2.60;;
29246;SDS011;16272;48.188;9.964;2022-11-25T02:01:04;7.28;;;2.53;;
29246;SDS011;16272;48.188;9.964;2022-11-25T02:03:32;6.97;;;2.20;;
29246;SDS011;16272;48.188;9.964;2022-11-25T02:06:12;8.50;;;2.60;;
29246;SDS011;16272;48.188;9.964;2022-11-25T02:08:39;7.60;;;2.58;;
29246;SDS011;16272;48.188;9.964;2022-11-25T02:11:07;8.68;;;2.42;;
29246;SDS011;16272;48.188;9.964;2022-11-25T02:13:32;7.27;;;2.20;;
29246;SDS011;16272;48.188;9.964;2022-11-25T02:15:59;7.57;;;2.25;;
29246;SDS011;16272;48.188;9.964;2022-11-25T02:18:24;8.57;;;2.40;;
29246;SDS011;16272;48.188;9.964;2022-11-25T02:20:52;8.27;;;2.58;;
29246;SDS011;16272;48.188;9.964;2022-11-25T02:23:24;8.52;;;2.60;;
29246;SDS011;16272;48.188;9.964;2022-11-25T02:25:57;8.53;;;2.07;;
29246;SDS011;16272;48.188;9.964;2022-11-25T02:28:23;8.55;;;2.22;;
29246;SDS011;16272;48.188;9.964;2022-11-25T02:30:51;8.05;;;2.58;;
29246;SDS011;16272;48.188;9.964;2022-11-25T02:33:17;7.17;;;2.33;;
29246;SDS011;16272;48.188;9.964;2022-11-25T02:41:10;8.25;;;2.40;;
29246;SDS011;16272;48.188;9.964;2022-11-25T02:43:40;8.07;;;2.75;;
29246;SDS011;16272;48.188;9.964;2022-11-25T02:46:07;7.77;;;2.63;;
29246;SDS011;16272;48.188;9.964;2022-11-25T02:48:38;7.78;;;2.20;;
29246;SDS011;16272;48.188;9.964;2022-11-25T02:51:05;7.25;;;2.25;;
29246;SDS011;16272;48.188;9.964;2022-11-25T02:53:31;9.10;;;2.20;;
29246;SDS011;16272;48.188;9.964;2022-11-25T02:55:57;7.80;;;2.63;;
29246;SDS011;16272;48.188;9.964;2022-11-25T02:58:23;8.15;;;2.70;;
29246;SDS011;16272;48.188;9.964;2022-11-25T03:00:49;8.20;;;2.70;;
29246;SDS011;16272;48.188;9.964;2022-11-25T03:03:15;7.63;;;2.33;;
29246;SDS011;16272;48.188;9.964;2022-11-25T03:05:40;8.27;;;2.40;;
29246;SDS011;16272;48.188;9.964;2022-11-25T03:08:06;8.27;;;2.60;;
29246;SDS011;16272;48.188;9.964;2022-11-25T03:10:32;7.75;;;2.30;;
29246;SDS011;16272;48.188;9.964;2022-11-25T03:12:58;6.55;;;2.10;;
29246;SDS011;16272;48.188;9.964;2022-11-25T03:15:24;7.37;;;2.23;;
29246;SDS011;16272;48.188;9.964;2022-11-25T03:17:50;8.23;;;2.28;;
29246;SDS011;16272;48.188;9.964;2022-11-25T03:20:15;8.13;;;2.87;;
29246;SDS011;16272;48.188;9.964;2022-11-25T03:22:41;8.32;;;3.10;;
29246;SDS011;16272;48.188;9.964;2022-11-25T03:25:07;8.10;;;2.63;;
29246;SDS011;16272;48.188;9.964;2022-11-25T03:27:34;7.32;;;2.22;;
29246;SDS011;16272;48.188;9.964;2022-11-25T03:30:00;8.00;;;2.30;;
29246;SDS011;16272;48.188;9.964;2022-11-25T03:32:25;8.60;;;2.33;;
29246;SDS011;16272;48.188;9.964;2022-11-25T03:34:51;7.93;;;2.47;;
29246;SDS011;16272;48.188;9.964;2022-11-25T03:37:16;8.70;;;2.60;;
29246;SDS011;16272;48.188;9.964;2022-11-25T03:39:42;8.60;;;2.77;;
29246;SDS011;16272;48.188;9.964;2022-11-25T03:42:07;8.93;;;2.50;;
29246;SDS011;16272;48.188;9.964;2022-11-25T03:44:33;8.63;;;2.70;;
29246;SDS011;16272;48.188;9.964;2022-11-25T03:46:58;7.50;;;2.50;;
29246;SDS011;16272;48.188;9.964;2022-11-25T03:49:23;8.63;;;2.30;;
29246;SDS011;16272;48.188;9.964;2022-11-25T03:51:49;8.40;;;2.53;;
29246;SDS011;16272;48.188;9.964;2022-11-25T03:54:14;7.97;;;2.60;;
29246;SDS011;16272;48.188;9.964;2022-11-25T03:56:40;8.90;;;2.53;;
29246;SDS011;16272;48.188;9.964;2022-11-25T03:59:05;7.23;;;2.40;;
29246;SDS011;16272;48.188;9.964;2022-11-25T04:01:30;7.60;;;2.57;;
29246;SDS011;16272;48.188;9.964;2022-11-25T04:03:56;8.27;;;2.73;;
29246;SDS011;16272;48.188;9.964;2022-11-25T04:06:21;8.20;;;2.60;;
29246;SDS011;16272;48.188;9.964;2022-11-25T04:08:48;8.00;;;2.40;;
29246;SDS011;16272;48.188;9.964;2022-11-25T04:11:14;7.82;;;2.33;;
29246;SDS011;16272;48.188;9.964;2022-11-25T04:13:39;8.70;;;2.30;;
29246;SDS011;16272;48.188;9.964;2022-11-25T04:16:04;7.13;;;2.17;;
29246;SDS011;16272;48.188;9.964;2022-11-25T04:18:30;6.83;;;2.30;;
29246;SDS011;16272;48.188;9.964;2022-11-25T04:20:55;7.20;;;2.40;;
29246;SDS011;16272;48.188;9.964;2022-11-25T04:23:22;7.80;;;2.40;;
29246;SDS011;16272;48.188;9.964;2022-11-25T04:25:50;8.32;;;2.45;;
29246;SDS011;16272;48.188;9.964;2022-11-25T04:28:15;7.03;;;2.30;;
29246;SDS011;16272;48.188;9.964;2022-11-25T04:30:41;7.38;;;2.20;;
29246;SDS011;16272;48.188;9.964;2022-11-25T04:33:06;7.80;;;2.40;;
29246;SDS011;16272;48.188;9.964;2022-11-25T04:35:32;7.53;;;2.40;;
29246;SDS011;16272;48.188;9.964;2022-11-25T04:37:57;8.27;;;2.60;;
29246;SDS011;16272;48.188;9.964;2022-11-25T04:40:23;10.60;;;2.47;;
29246;SDS011;16272;48.188;9.964;2022-11-25T04:42:48;8.55;;;2.65;;
29246;SDS011;16272;48.188;9.964;2022-11-25T04:45:14;8.27;;;2.80;;
29246;SDS011;16272;48.188;9.964;2022-11-25T04:47:41;7.70;;;2.58;;
29246;SDS011;16272;48.188;9.964;2022-11-25T04:50:08;7.97;;;2.67;;
29246;SDS011;16272;48.188;9.964;2022-11-25T04:52:38;9.47;;;2.70;;
29246;SDS011;16272;48.188;9.964;2022-11-25T04:55:03;8.87;;;2.70;;
29246;SDS011;16272;48.188;9.964;2022-11-25T04:57:29;7.75;;;2.60;;
29246;SDS011;16272;48.188;9.964;2022-11-25T04:59:54;8.77;;;1.97;;
29246;SDS011;16272;48.188;9.964;2022-11-25T05:02:24;7.97;;;2.50;;
29246;SDS011;16272;48.188;9.964;2022-11-25T05:04:51;9.48;;;2.70;;
29246;SDS011;16272;48.188;9.964;2022-11-25T05:07:18;7.60;;;2.53;;
29246;SDS011;16272;48.188;9.964;2022-11-25T05:09:45;8.02;;;2.60;;
29246;SDS011;16272;48.188;9.964;2022-11-25T05:12:12;9.43;;;2.70;;
29246;SDS011;16272;48.188;9.964;2022-11-25T05:14:42;8.20;;;2.60;;
29246;SDS011;16272;48.188;9.964;2022-11-25T05:17:09;7.70;;;2.47;;
29246;SDS011;16272;48.188;9.964;2022-11-25T05:19:38;10.17;;;3.00;;
29246;SDS011;16272;48.188;9.964;2022-11-25T05:22:03;7.68;;;2.58;;
29246;SDS011;16272;48.188;9.964;2022-11-25T05:24:28;9.83;;;2.87;;
29246;SDS011;16272;48.188;9.964;2022-11-25T05:26:54;7.90;;;2.40;;
29246;SDS011;16272;48.188;9.964;2022-11-25T05:29:19;7.17;;;2.70;;
29246;SDS011;16272;48.188;9.964;2022-11-25T05:31:44;10.07;;;2.80;;
29246;SDS011;16272;48.188;9.964;2022-11-25T05:34:10;7.63;;;2.40;;
29246;SDS011;16272;48.188;9.964;2022-11-25T05:36:35;8.60;;;2.87;;
29246;SDS011;16272;48.188;9.964;2022-11-25T05:39:01;8.00;;;2.50;;
29246;SDS011;16272;48.188;9.964;2022-11-25T05:41:26;8.50;;;2.80;;
29246;SDS011;16272;48.188;9.964;2022-11-25T05:43:52;7.30;;;2.30;;
29246;SDS011;16272;48.188;9.964;2022-11-25T05:46:17;7.85;;;2.65;;
29246;SDS011;16272;48.188;9.964;2022-11-25T05:48:43;8.20;;;2.80;;
29246;SDS011;16272;48.188;9.964;2022-11-25T05:51:08;8.75;;;3.08;;
29246;SDS011;16272;48.188;9.964;2022-11-25T05:53:34;8.13;;;2.60;;
29246;SDS011;16272;48.188;9.964;2022-11-25T05:56:01;7.35;;;2.70;;
29246;SDS011;16272;48.188;9.964;2022-11-25T05:58:29;10.63;;;2.77;;
29246;SDS011;16272;48.188;9.964;2022-11-25T06:00:55;9.68;;;3.47;;
29246;SDS011;16272;48.188;9.964;2022-11-25T06:03:25;11.93;;;5.13;;
29246;SDS011;16272;48.188;9.964;2022-11-25T06:05:52;8.70;;;3.55;;
29246;SDS011;16272;48.188;9.964;2022-11-25T06:08:19;10.40;;;3.67;;
29246;SDS011;16272;48.188;9.964;2022-11-25T06:10:45;60.83;;;17.10;;
29246;SDS011;16272;48.188;9.964;2022-11-25T06:13:10;15.90;;;5.80;;
29246;SDS011;16272;48.188;9.964;2022-11-25T06:15:39;12.93;;;4.53;;
29246;SDS011;16272;48.188;9.964;2022-11-25T06:18:06;16.55;;;5.88;;
29246;SDS011;16272;48.188;9.964;2022-11-25T06:20:32;23.88;;;7.93;;
29246;SDS011;16272;48.188;9.964;2022-11-25T06:22:57;135.77;;;28.23;;
29246;SDS011;16272;48.188;9.964;2022-11-25T06:25:23;16.40;;;6.27;;
29246;SDS011;16272;48.188;9.964;2022-11-25T06:27:50;13.95;;;4.18;;
29246;SDS011;16272;48.188;9.964;2022-11-25T06:30:15;21.03;;;7.20;;
29246;SDS011;16272;48.188;9.964;2022-11-25T06:32:41;17.15;;;5.32;;
29246;SDS011;16272;48.188;9.964;2022-11-25T06:35:07;15.82;;;5.28;;
29246;SDS011;16272;48.188;9.964;2022-11-25T06:37:33;21.10;;;6.73;;
29246;SDS011;16272;48.188;9.964;2022-11-25T06:39:58;23.25;;;8.65;;
29246;SDS011;16272;48.188;9.964;2022-11-25T06:42:23;27.43;;;8.13;;
29246;SDS011;16272;48.188;9.964;2022-11-25T06:44:49;23.33;;;7.53;;
29246;SDS011;16272;48.188;9.964;2022-11-25T06:47:14;17.80;;;6.50;;
29246;SDS011;16272;48.188;9.964;2022-11-25T06:49:40;12.80;;;5.03;;
29246;SDS011;16272;48.188;9.964;2022-11-25T06:52:05;12.63;;;4.30;;
29246;SDS011;16272;48.188;9.964;2022-11-25T06:54:31;13.10;;;4.97;;
29246;SDS011;16272;48.188;9.964;2022-11-25T06:56:56;15.15;;;6.10;;
29246;SDS011;16272;48.188;9.964;2022-11-25T06:59:22;18.03;;;7.47;;
29246;SDS011;16272;48.188;9.964;2022-11-25T07:01:47;11.10;;;4.77;;
29246;SDS011;16272;48.188;9.964;2022-11-25T07:04:12;13.03;;;4.23;;
29246;SDS011;16272;48.188;9.964;2022-11-25T07:06:38;12.67;;;4.67;;
29246;SDS011;16272;48.188;9.964;2022-11-25T07:09:03;13.07;;;5.07;;
29246;SDS011;16272;48.188;9.964;2022-11-25T07:11:30;13.05;;;4.97;;
29246;SDS011;16272;48.188;9.964;2022-11-25T07:13:58;11.82;;;4.75;;
29246;SDS011;16272;48.188;9.964;2022-11-25T07:16:26;14.67;;;5.27;;
29246;SDS011;16272;48.188;9.964;2022-11-25T07:18:52;16.40;;;6.03;;
29246;SDS011;16272;48.188;9.964;2022-11-25T07:21:19;18.75;;;7.70;;
29246;SDS011;16272;48.188;9.964;2022-11-25T07:23:47;14.03;;;5.87;;
29246;SDS011;16272;48.188;9.964;2022-11-25T07:26:15;17.85;;;6.72;;
29246;SDS011;16272;48.188;9.964;2022-11-25T07:28:48;13.02;;;5.55;;
29246;SDS011;16272;48.188;9.964;2022-11-25T07:31:21;15.25;;;5.07;;
29246;SDS011;16272;48.188;9.964;2022-11-25T07:33:50;16.17;;;5.53;;
29246;SDS011;16272;48.188;9.964;2022-11-25T07:36:17;15.33;;;5.13;;
29246;SDS011;16272;48.188;9.964;2022-11-25T07:38:42;15.70;;;5.28;;
29246;SDS011;16272;48.188;9.964;2022-11-25T07:41:09;14.67;;;5.37;;
29246;SDS011;16272;48.188;9.964;2022-11-25T07:43:37;13.32;;;5.50;;
29246;SDS011;16272;48.188;9.964;2022-11-25T07:46:10;14.60;;;5.72;;
29246;SDS011;16272;48.188;9.964;2022-11-25T07:48:36;15.17;;;5.40;;
29246;SDS011;16272;48.188;9.964;2022-11-25T07:51:02;16.13;;;5.97;;
29246;SDS011;16272;48.188;9.964;2022-11-25T07:53:27;17.57;;;5.90;;
29246;SDS011;16272;48.188;9.964;2022-11-25T07:55:53;14.70;;;6.43;;
29246;SDS011;16272;48.188;9.964;2022-11-25T07:58:19;15.13;;;6.50;;
29246;SDS011;16272;48.188;9.964;2022-11-25T08:00:44;18.00;;;6.70;;
29246;SDS011;16272;48.188;9.964;2022-11-25T08:03:10;14.67;;;6.37;;
29246;SDS011;16272;48.188;9.964;2022-11-25T08:05:35;17.00;;;6.20;;
29246;SDS011;16272;48.188;9.964;2022-11-25T08:08:00;15.60;;;6.20;;
29246;SDS011;16272;48.188;9.964;2022-11-25T08:10:26;15.90;;;5.77;;
29246;SDS011;16272;48.188;9.964;2022-11-25T08:12:52;15.00;;;6.25;;
29246;SDS011;16272;48.188;9.964;2022-11-25T08:15:17;14.97;;;5.43;;
29246;SDS011;16272;48.188;9.964;2022-11-25T08:17:43;14.50;;;5.93;;
29246;SDS011;16272;48.188;9.964;2022-11-25T08:20:09;15.20;;;5.57;;
29246;SDS011;16272;48.188;9.964;2022-11-25T08:22:34;14.20;;;5.65;;
29246;SDS011;16272;48.188;9.964;2022-11-25T08:25:00;13.73;;;5.87;;
29246;SDS011;16272;48.188;9.964;2022-11-25T08:27:25;13.87;;;5.90;;
29246;SDS011;16272;48.188;9.964;2022-11-25T08:29:50;14.80;;;5.70;;
29246;SDS011;16272;48.188;9.964;2022-11-25T08:32:15;15.23;;;5.50;;
29246;SDS011;16272;48.188;9.964;2022-11-25T08:34:41;13.50;;;5.73;;
29246;SDS011;16272;48.188;9.964;2022-11-25T08:37:06;15.07;;;5.88;;
29246;SDS011;16272;48.188;9.964;2022-11-25T08:39:32;11.77;;;4.97;;
29246;SDS011;16272;48.188;9.964;2022-11-25T08:41:57;12.93;;;5.33;;
29246;SDS011;16272;48.188;9.964;2022-11-25T08:44:22;13.73;;;5.87;;
29246;SDS011;16272;48.188;9.964;2022-11-25T08:46:52;12.82;;;5.75;;
29246;SDS011;16272;48.188;9.964;2022-11-25T08:49:17;15.47;;;6.57;;
29246;SDS011;16272;48.188;9.964;2022-11-25T08:51:43;13.98;;;6.28;;
29246;SDS011;16272;48.188;9.964;2022-11-25T08:54:09;12.97;;;5.83;;
29246;SDS011;16272;48.188;9.964;2022-11-25T08:56:34;14.73;;;5.28;;
29246;SDS011;16272;48.188;9.964;2022-11-25T08:59:00;12.33;;;5.20;;
29246;SDS011;16272;48.188;9.964;2022-11-25T09:01:25;11.83;;;5.27;;
29246;SDS011;16272;48.188;9.964;2022-11-25T09:03:52;12.00;;;5.00;;
29246;SDS011;16272;48.188;9.964;2022-11-25T09:06:19;11.50;;;5.25;;
29246;SDS011;16272;48.188;9.964;2022-11-25T09:08:45;13.27;;;5.67;;
29246;SDS011;16272;48.188;9.964;2022-11-25T09:11:11;12.57;;;5.45;;
29246;SDS011;16272;48.188;9.964;2022-11-25T09:13:37;13.18;;;5.40;;
29246;SDS011;16272;48.188;9.964;2022-11-25T09:16:03;13.30;;;5.03;;
29246;SDS011;16272;48.188;9.964;2022-11-25T09:18:29;12.35;;;5.25;;
29246;SDS011;16272;48.188;9.964;2022-11-25T09:20:56;11.60;;;4.97;;
29246;SDS011;16272;48.188;9.964;2022-11-25T09:23:23;13.35;;;5.32;;
29246;SDS011;16272;48.188;9.964;2022-11-25T09:25:49;14.10;;;5.40;;
29246;SDS011;16272;48.188;9.964;2022-11-25T09:28:19;12.82;;;5.15;;
29246;SDS011;16272;48.188;9.964;2022-11-25T09:30:45;12.82;;;4.97;;
29246;SDS011;16272;48.188;9.964;2022-11-25T09:33:10;12.90;;;5.23;;
29246;SDS011;16272;48.188;9.964;2022-11-25T09:35:36;13.53;;;5.27;;
29246;SDS011;16272;48.188;9.964;2022-11-25T09:38:01;13.70;;;5.47;;
29246;SDS011;16272;48.188;9.964;2022-11-25T09:54:41;14.38;;;8.07;;
29246;SDS011;16272;48.188;9.964;2022-11-25T09:57:24;16.15;;;7.43;;
29246;SDS011;16272;48.188;9.964;2022-11-25T10:00:01;14.10;;;5.93;;
29246;SDS011;16272;48.188;9.964;2022-11-25T10:02:38;16.77;;;7.07;;
29246;SDS011;16272;48.188;9.964;2022-11-25T10:08:15;27.85;;;9.80;;
29246;SDS011;16272;48.188;9.964;2022-11-25T10:10:47;18.70;;;7.40;;
29246;SDS011;16272;48.188;9.964;2022-11-25T10:13:26;13.63;;;6.00;;
29246;SDS011;16272;48.188;9.964;2022-11-25T10:15:58;14.73;;;5.93;;
29246;SDS011;16272;48.188;9.964;2022-11-25T10:18:30;12.23;;;5.40;;
29246;SDS011;16272;48.188;9.964;2022-11-25T10:21:03;14.48;;;6.10;;
29246;SDS011;16272;48.188;9.964;2022-11-25T10:23:32;18.33;;;7.47;;
29246;SDS011;16272;48.188;9.964;2022-11-25T10:26:13;16.80;;;6.80;;
29246;SDS011;16272;48.188;9.964;2022-11-25T10:28:44;15.18;;;6.50;;
29246;SDS011;16272;48.188;9.964;2022-11-25T10:31:34;13.73;;;6.28;;
29246;SDS011;16272;48.188;9.964;2022-11-25T10:34:00;13.90;;;5.80;;
29246;SDS011;16272;48.188;9.964;2022-11-25T10:36:30;16.63;;;6.30;;
29246;SDS011;16272;48.188;9.964;2022-11-25T10:41:36;12.95;;;5.53;;
29246;SDS011;16272;48.188;9.964;2022-11-25T10:44:19;13.07;;;5.57;;
29246;SDS011;16272;48.188;9.964;2022-11-25T10:46:56;15.43;;;6.13;;
29246;SDS011;16272;48.188;9.964;2022-11-25T10:52:26;15.45;;;5.90;;
29246;SDS011;16272;48.188;9.964;2022-11-25T10:54:54;14.27;;;5.60;;
29246;SDS011;16272;48.188;9.964;2022-11-25T10:57:40;13.40;;;4.82;;
29246;SDS011;16272;48.188;9.964;2022-11-25T11:00:10;12.07;;;4.23;;
29246;SDS011;16272;48.188;9.964;2022-11-25T11:02:49;10.57;;;4.10;;
29246;SDS011;16272;48.188;9.964;2022-11-25T11:05:17;8.97;;;2.93;;
29246;SDS011;16272;48.188;9.964;2022-11-25T11:07:47;9.30;;;2.55;;
29246;SDS011;16272;48.188;9.964;2022-11-25T11:10:32;6.10;;;1.85;;
29246;SDS011;16272;48.188;9.964;2022-11-25T11:17:56;8.07;;;1.70;;
29246;SDS011;16272;48.188;9.964;2022-11-25T11:20:27;7.80;;;1.80;;
29246;SDS011;16272;48.188;9.964;2022-11-25T11:22:56;7.78;;;1.50;;
29246;SDS011;16272;48.188;9.964;2022-11-25T11:25:31;7.60;;;1.40;;
29246;SDS011;16272;48.188;9.964;2022-11-25T11:27:59;6.25;;;1.40;;
29246;SDS011;16272;48.188;9.964;2022-11-25T11:30:27;7.82;;;1.58;;
29246;SDS011;16272;48.188;9.964;2022-11-25T11:32:59;5.63;;;1.50;;
29246;SDS011;16272;48.188;9.964;2022-11-25T11:35:37;6.63;;;1.45;;
29246;SDS011;16272;48.188;9.964;2022-11-25T11:38:34;6.00;;;1.45;;
29246;SDS011;16272;48.188;9.964;2022-11-25T11:41:47;6.35;;;1.70;;
29246;SDS011;16272;48.188;9.964;2022-11-25T11:49:52;8.10;;;1.30;;
29246;SDS011;16272;48.188;9.964;2022-11-25T11:52:27;6.00;;;1.30;;
29246;SDS011;16272;48.188;9.964;2022-11-25T11:54:59;7.57;;;1.50;;
29246;SDS011;16272;48.188;9.964;2022-11-25T11:57:40;6.70;;;1.50;;
29246;SDS011;16272;48.188;9.964;2022-11-25T12:00:12;7.43;;;1.33;;
29246;SDS011;16272;48.188;9.964;2022-11-25T12:02:59;6.80;;;1.80;;
29246;SDS011;16272;48.188;9.964;2022-11-25T12:05:30;7.05;;;1.63;;
29246;SDS011;16272;48.188;9.964;2022-11-25T12:15:51;5.93;;;1.23;;
29246;SDS011;16272;48.188;9.964;2022-11-25T12:21:03;6.20;;;1.65;;
29246;SDS011;16272;48.188;9.964;2022-11-25T12:26:11;5.77;;;1.47;;
29246;SDS011;16272;48.188;9.964;2022-11-25T12:28:42;6.90;;;1.60;;
29246;SDS011;16272;48.188;9.964;2022-11-25T12:33:52;5.50;;;1.10;;
29246;SDS011;16272;48.188;9.964;2022-11-25T12:36:37;7.13;;;1.67;;
29246;SDS011;16272;48.188;9.964;2022-11-25T12:39:04;6.73;;;1.43;;
29246;SDS011;16272;48.188;9.964;2022-11-25T12:41:53;7.20;;;1.10;;
29246;SDS011;16272;48.188;9.964;2022-11-25T12:46:55;6.65;;;1.13;;
29246;SDS011;16272;48.188;9.964;2022-11-25T12:49:28;5.97;;;1.63;;
29246;SDS011;16272;48.188;9.964;2022-11-25T13:13:52;6.75;;;1.30;;
29246;SDS011;16272;48.188;9.964;2022-11-25T13:16:21;5.80;;;1.60;;
29246;SDS011;16272;48.188;9.964;2022-11-25T13:18:47;6.70;;;1.53;;
29246;SDS011;16272;48.188;9.964;2022-11-25T13:21:14;6.57;;;1.25;;
29246;SDS011;16272;48.188;9.964;2022-11-25T13:29:00;8.90;;;1.33;;
29246;SDS011;16272;48.188;9.964;2022-11-25T13:31:31;7.75;;;1.60;;
29246;SDS011;16272;48.188;9.964;2022-11-25T13:34:01;7.90;;;1.80;;
29246;SDS011;16272;48.188;9.964;2022-11-25T13:36:51;6.50;;;1.50;;
29246;SDS011;16272;48.188;9.964;2022-11-25T13:39:31;5.85;;;1.60;;
29246;SDS011;16272;48.188;9.964;2022-11-25T13:44:52;5.63;;;1.80;;
29246;SDS011;16272;48.188;9.964;2022-11-25T13:52:56;8.45;;;3.03;;
29246;SDS011;16272;48.188;9.964;2022-11-25T13:55:22;8.83;;;3.03;;
29246;SDS011;16272;48.188;9.964;2022-11-25T13:58:15;9.80;;;3.00;;
29246;SDS011;16272;48.188;9.964;2022-11-25T14:19:43;8.48;;;2.72;;
29246;SDS011;16272;48.188;9.964;2022-11-25T14:25:18;8.88;;;3.40;;
29246;SDS011;16272;48.188;9.964;2022-11-25T14:27:47;9.13;;;3.23;;
29246;SDS011;16272;48.188;9.964;2022-11-25T14:30:17;9.43;;;3.10;;
29246;SDS011;16272;48.188;9.964;2022-11-25T14:38:18;10.35;;;2.83;;
29246;SDS011;16272;48.188;9.964;2022-11-25T14:41:03;10.37;;;3.10;;
29246;SDS011;16272;48.188;9.964;2022-11-25T14:43:37;8.70;;;3.10;;
29246;SDS011;16272;48.188;9.964;2022-11-25T14:46:13;11.80;;;3.30;;
29246;SDS011;16272;48.188;9.964;2022-11-25T14:48:39;8.05;;;2.70;;
29246;SDS011;16272;48.188;9.964;2022-11-25T14:51:06;12.30;;;3.13;;
29246;SDS011;16272;48.188;9.964;2022-11-25T14:53:41;10.00;;;2.90;;
29246;SDS011;16272;48.188;9.964;2022-11-25T14:56:08;10.27;;;3.08;;
29246;SDS011;16272;48.188;9.964;2022-11-25T14:58:38;10.20;;;3.47;;
29246;SDS011;16272;48.188;9.964;2022-11-25T15:01:06;10.23;;;3.45;;
29246;SDS011;16272;48.188;9.964;2022-11-25T15:03:40;12.07;;;3.57;;
29246;SDS011;16272;48.188;9.964;2022-11-25T15:06:06;11.65;;;3.90;;
29246;SDS011;16272;48.188;9.964;2022-11-25T15:08:37;12.53;;;3.70;;
29246;SDS011;16272;48.188;9.964;2022-11-25T15:11:08;14.27;;;4.22;;
29246;SDS011;16272;48.188;9.964;2022-11-25T15:13:44;12.15;;;4.28;;
29246;SDS011;16272;48.188;9.964;2022-11-25T15:16:13;12.23;;;3.65;;
29246;SDS011;16272;48.188;9.964;2022-11-25T15:18:45;10.38;;;3.75;;
29246;SDS011;16272;48.188;9.964;2022-11-25T15:21:11;9.53;;;3.93;;
29246;SDS011;16272;48.188;9.964;2022-11-25T15:23:39;13.70;;;3.85;;
29246;SDS011;16272;48.188;9.964;2022-11-25T15:26:39;10.18;;;3.88;;
29246;SDS011;16272;48.188;9.964;2022-11-25T15:28:59;10.13;;;3.78;;
29246;SDS011;16272;48.188;9.964;2022-11-25T15:31:34;11.38;;;3.92;;
29246;SDS011;16272;48.188;9.964;2022-11-25T15:34:02;13.53;;;4.60;;
29246;SDS011;16272;48.188;9.964;2022-11-25T15:36:32;12.38;;;3.90;;
29246;SDS011;16272;48.188;9.964;2022-11-25T15:39:14;14.93;;;4.10;;
29246;SDS011;16272;48.188;9.964;2022-11-25T15:41:40;12.00;;;4.50;;
29246;SDS011;16272;48.188;9.964;2022-11-25T15:44:16;15.23;;;4.35;;
29246;SDS011;16272;48.188;9.964;2022-11-25T15:46:49;14.48;;;4.60;;
29246;SDS011;16272;48.188;9.964;2022-11-25T15:49:17;15.05;;;4.78;;
29246;SDS011;16272;48.188;9.964;2022-11-25T15:51:50;13.35;;;4.70;;
29246;SDS011;16272;48.188;9.964;2022-11-25T15:56:55;13.45;;;4.50;;
29246;SDS011;16272;48.188;9.964;2022-11-25T16:02:29;13.57;;;4.53;;
29246;SDS011;16272;48.188;9.964;2022-11-25T16:18:16;13.98;;;4.50;;
29246;SDS011;16272;48.188;9.964;2022-11-25T16:20:47;16.97;;;6.10;;
29246;SDS011;16272;48.188;9.964;2022-11-25T16:23:14;13.00;;;5.18;;
29246;SDS011;16272;48.188;9.964;2022-11-25T16:25:48;13.35;;;4.78;;
29246;SDS011;16272;48.188;9.964;2022-11-25T16:28:19;14.55;;;4.68;;
29246;SDS011;16272;48.188;9.964;2022-11-25T16:30:46;13.57;;;4.95;;
29246;SDS011;16272;48.188;9.964;2022-11-25T16:33:11;11.07;;;4.37;;
29246;SDS011;16272;48.188;9.964;2022-11-25T16:35:36;12.23;;;4.83;;
29246;SDS011;16272;48.188;9.964;2022-11-25T16:38:02;11.27;;;4.60;;
29246;SDS011;16272;48.188;9.964;2022-11-25T16:40:27;13.20;;;5.03;;
29246;SDS011;16272;48.188;9.964;2022-11-25T16:42:53;15.57;;;5.28;;
29246;SDS011;16272;48.188;9.964;2022-11-25T16:45:21;12.63;;;5.05;;
29246;SDS011;16272;48.188;9.964;2022-11-25T16:47:48;13.77;;;4.95;;
29246;SDS011;16272;48.188;9.964;2022-11-25T16:50:14;13.13;;;4.83;;
29246;SDS011;16272;48.188;9.964;2022-11-25T16:52:41;13.65;;;5.25;;
29246;SDS011;16272;48.188;9.964;2022-11-25T16:55:06;14.13;;;5.17;;
29246;SDS011;16272;48.188;9.964;2022-11-25T16:57:32;12.50;;;5.50;;
29246;SDS011;16272;48.188;9.964;2022-11-25T16:59:58;12.82;;;5.25;;
29246;SDS011;16272;48.188;9.964;2022-11-25T17:02:31;15.07;;;4.97;;
29246;SDS011;16272;48.188;9.964;2022-11-25T17:04:57;14.87;;;5.20;;
29246;SDS011;16272;48.188;9.964;2022-11-25T17:07:23;12.15;;;4.72;;